createdAt,value
2018-05-11T00:01:12.986Z,101463.66
2018-05-11T00:06:15.032Z,101469.91
2018-05-11T00:11:16.367Z,101458.58
2018-05-11T00:16:17.694Z,101462.55
2018-05-11T00:21:19.007Z,101472.05
2018-05-11T00:26:20.311Z,101473.90
2018-05-11T00:31:21.616Z,101462.62
2018-05-11T00:36:22.930Z,101473.84
2018-05-11T00:41:24.984Z,101477.44
2018-05-11T00:46:26.302Z,101490.95
2018-05-11T00:51:27.619Z,101489.09
2018-05-11T00:56:29.658Z,101480.80
2018-05-11T01:01:31.118Z,101485.38
2018-05-11T01:06:33.177Z,101483.23
2018-05-11T01:11:34.498Z,101483.66
2018-05-11T01:16:35.814Z,101500.12
2018-05-11T01:21:37.861Z,101500.88
2018-05-11T01:26:39.193Z,101498.43
2018-05-11T01:31:41.254Z,101506.59
2018-05-11T01:36:42.573Z,101509.19
2018-05-11T01:41:43.889Z,101517.72
2018-05-11T01:46:45.942Z,101515.27
2018-05-11T01:51:47.270Z,101515.97
2018-05-11T01:56:49.383Z,101522.88
2018-05-11T02:01:51.474Z,101523.53
2018-05-11T02:06:52.806Z,101524.20
2018-05-11T02:11:54.130Z,101518.15
2018-05-11T02:16:55.449Z,101529.06
2018-05-11T02:21:56.757Z,101529.82
2018-05-11T02:26:58.807Z,101536.08
2018-05-11T02:32:00.105Z,101529.91
2018-05-11T02:37:01.411Z,101541.16
2018-05-11T02:42:02.746Z,101544.66
2018-05-11T02:47:04.097Z,101549.38
2018-05-11T02:52:05.464Z,101555.43
2018-05-11T02:57:06.798Z,101563.55
2018-05-11T03:02:08.873Z,101567.66
2018-05-11T03:07:10.186Z,101569.56
2018-05-11T03:12:12.256Z,101567.65
2018-05-11T03:17:13.566Z,101567.38
2018-05-11T03:22:14.889Z,101578.46
2018-05-11T03:27:16.226Z,101575.03
2018-05-11T03:32:17.541Z,101577.15
2018-05-11T03:37:18.873Z,101583.38
2018-05-11T03:42:20.194Z,101595.80
2018-05-11T03:47:21.502Z,101597.36
2018-05-11T03:52:22.826Z,101604.38
2018-05-11T03:57:24.145Z,101604.41
2018-05-11T04:02:43.957Z,101611.14
2018-05-11T04:08:03.842Z,101612.16
2018-05-11T04:13:05.967Z,101607.37
2018-05-11T04:18:08.043Z,101612.86
2018-05-11T04:23:09.348Z,101617.53
2018-05-11T04:28:11.398Z,101620.81
2018-05-11T04:33:12.705Z,101633.28
2018-05-11T04:38:13.993Z,101643.58
2018-05-11T04:43:15.309Z,101641.97
2018-05-11T04:48:16.606Z,101649.41
2018-05-11T04:53:18.668Z,101648.16
2018-05-11T04:58:20.001Z,101652.53
2018-05-11T05:03:21.334Z,101662.76
2018-05-11T05:08:22.656Z,101664.13
2018-05-11T05:13:23.962Z,101664.05
2018-05-11T05:18:25.270Z,101666.80
2018-05-11T05:23:27.386Z,101674.28
2018-05-11T05:28:29.482Z,101678.80
2018-05-11T05:33:31.613Z,101684.40
2018-05-11T05:38:32.923Z,101675.14
2018-05-11T05:43:34.753Z,101686.11
2018-05-11T05:48:36.102Z,101686.98
2018-05-11T05:53:37.454Z,101684.81
2018-05-11T05:58:39.518Z,101687.77
2018-05-11T06:03:44.292Z,101686.66
2018-05-11T06:08:45.719Z,101686.56
2018-05-11T06:13:47.018Z,101692.84
2018-05-11T06:18:49.088Z,101690.91
2018-05-11T06:23:50.523Z,101688.49
2018-05-11T06:28:52.637Z,101695.53
2018-05-11T06:33:54.689Z,101681.97
2018-05-11T06:38:56.043Z,101690.66
2018-05-11T06:43:58.485Z,101699.53
2018-05-11T06:48:59.835Z,101687.69
2018-05-11T06:54:01.898Z,101681.13
2018-05-11T06:59:03.295Z,101678.57
2018-05-11T07:04:04.602Z,101679.81
2018-05-11T07:09:05.908Z,101671.33
2018-05-11T07:14:07.972Z,101678.88
2018-05-11T07:19:09.310Z,101682.26
2018-05-11T07:24:11.378Z,101677.92
2018-05-11T07:29:12.734Z,101666.34
2018-05-11T07:34:14.081Z,101669.09
2018-05-11T07:39:15.423Z,101669.45
2018-05-11T07:44:16.757Z,101664.45
2018-05-11T07:49:18.126Z,101658.49
2018-05-11T07:54:19.461Z,101669.16
2018-05-11T07:59:20.785Z,101668.59
2018-05-11T08:04:22.255Z,101666.63
2018-05-11T08:09:23.647Z,101662.00
2018-05-11T08:14:25.038Z,101656.25
2018-05-11T08:19:26.578Z,101654.27
2018-05-11T08:24:27.983Z,101649.70
2018-05-11T08:29:29.324Z,101653.31
2018-05-11T08:34:30.663Z,101649.23
2018-05-11T08:39:31.975Z,101642.25
2018-05-11T08:44:34.147Z,101644.31
2018-05-11T08:49:36.241Z,101639.32
2018-05-11T08:54:37.566Z,101641.38
2018-05-11T08:59:38.918Z,101645.14
2018-05-11T09:04:40.342Z,101647.05
2018-05-11T09:09:42.422Z,101640.68
2018-05-11T09:14:44.225Z,101640.91
2018-05-11T09:19:46.342Z,101646.44
2018-05-11T09:24:49.721Z,101632.81
2018-05-11T09:29:51.065Z,101633.79
2018-05-11T09:34:52.654Z,101626.88
2018-05-11T09:39:55.066Z,101632.27
2018-05-11T09:44:58.271Z,101632.12
2018-05-11T09:49:59.893Z,101630.58
2018-05-11T09:55:01.913Z,101628.36
2018-05-11T10:00:03.255Z,101630.88
2018-05-11T10:05:04.575Z,101636.00
2018-05-11T10:10:06.224Z,101623.52
2018-05-11T10:15:08.646Z,101626.16
2018-05-11T10:20:10.374Z,101629.22
2018-05-11T10:25:11.779Z,101620.09
2018-05-11T10:30:13.111Z,101621.49
2018-05-11T10:35:15.274Z,101618.82
2018-05-11T10:40:16.615Z,101619.45
2018-05-11T10:45:18.733Z,101618.87
2018-05-11T10:50:20.823Z,101608.67
2018-05-11T10:55:22.906Z,101614.91
2018-05-11T11:00:24.251Z,101618.69
2018-05-11T11:05:25.590Z,101616.54
2018-05-11T11:10:27.019Z,101606.05
2018-05-11T11:15:29.085Z,101606.57
2018-05-11T11:20:30.516Z,101611.11
2018-05-11T11:25:32.096Z,101609.58
2018-05-11T11:30:34.177Z,101610.14
2018-05-11T11:35:35.582Z,101599.06
2018-05-11T11:40:36.955Z,101591.60
2018-05-11T11:45:38.403Z,101589.55
2018-05-11T11:50:39.808Z,101590.72
2018-05-11T11:55:41.206Z,101579.39
2018-05-11T12:00:42.554Z,101583.20
2018-05-11T12:05:44.954Z,101569.67
2018-05-11T12:10:47.019Z,101556.75
2018-05-11T12:15:49.463Z,101557.69
2018-05-11T12:20:51.566Z,101553.30
2018-05-11T12:25:52.955Z,101546.67
2018-05-11T12:30:54.307Z,101539.93
2018-05-11T12:35:55.646Z,101533.48
2018-05-11T12:40:57.772Z,101530.36
2018-05-11T12:45:59.880Z,101525.97
2018-05-11T12:51:02.040Z,101535.39
2018-05-11T12:56:03.412Z,101530.38
2018-05-11T13:01:04.788Z,101524.72
2018-05-11T13:06:06.116Z,101524.42
2018-05-11T13:11:07.468Z,101517.20
2018-05-11T13:16:08.833Z,101513.09
2018-05-11T13:21:10.942Z,101510.37
2018-05-11T13:26:13.130Z,101505.41
2018-05-11T13:31:14.536Z,101500.28
2018-05-11T13:36:15.995Z,101495.13
2018-05-11T13:41:18.003Z,101489.55
2018-05-11T13:46:19.336Z,101487.13
2018-05-11T13:51:20.711Z,101487.34
2018-05-11T13:56:22.796Z,101484.45
2018-05-11T14:01:24.165Z,101484.20
2018-05-11T14:06:25.517Z,101480.52
2018-05-11T14:11:26.844Z,101472.38
2018-05-11T14:16:28.154Z,101467.17
2018-05-11T14:21:29.463Z,101467.03
2018-05-11T14:26:31.565Z,101460.28
2018-05-11T14:31:32.887Z,101455.94
2018-05-11T14:36:34.232Z,101454.40
2018-05-11T14:41:35.591Z,101442.45
2018-05-11T14:46:36.931Z,101443.14
2018-05-11T14:51:39.363Z,101431.57
2018-05-11T14:56:40.802Z,101426.65
2018-05-11T15:01:42.137Z,101423.92
2018-05-11T15:06:44.305Z,101422.19
2018-05-11T15:11:45.653Z,101423.05
2018-05-11T15:16:47.012Z,101412.39
2018-05-11T15:21:48.350Z,101405.58
2018-05-11T15:26:49.670Z,101405.75
2018-05-11T15:31:51.082Z,101404.09
2018-05-11T15:36:52.386Z,101392.20
2018-05-11T15:41:54.478Z,101389.66
2018-05-11T15:46:55.831Z,101386.97
2018-05-11T15:51:57.166Z,101383.28
2018-05-11T15:56:58.490Z,101377.20
2018-05-11T16:02:00.621Z,101371.84
2018-05-11T16:07:02.072Z,101366.31
2018-05-11T16:12:03.452Z,101364.57
2018-05-11T16:17:04.826Z,101364.91
2018-05-11T16:22:06.142Z,101364.25
2018-05-11T16:27:08.247Z,101362.84
2018-05-11T16:32:11.854Z,101360.50
2018-05-11T16:37:13.206Z,101353.24
2018-05-11T16:42:14.709Z,101351.64
2018-05-11T16:47:16.114Z,101346.95
2018-05-11T16:52:17.462Z,101345.38
2018-05-11T16:57:19.571Z,101346.59
2018-05-11T17:02:21.653Z,101349.56
2018-05-11T17:07:23.198Z,101345.02
2018-05-11T17:12:24.687Z,101336.25
2018-05-11T17:17:26.051Z,101338.30
2018-05-11T17:22:27.444Z,101342.53
2018-05-11T17:27:28.842Z,101341.41
2018-05-11T17:32:30.209Z,101337.75
2018-05-11T17:37:31.553Z,101330.34
2018-05-11T17:42:33.612Z,101338.58
2018-05-11T17:47:34.976Z,101330.95
2018-05-11T17:52:36.308Z,101334.02
2018-05-11T17:57:38.233Z,101328.45
2018-05-11T18:02:39.599Z,101332.42
2018-05-11T18:07:41.093Z,101333.59
2018-05-11T18:12:42.655Z,101329.18
2018-05-11T18:17:44.248Z,101335.79
2018-05-11T18:22:45.652Z,101338.66
2018-05-11T18:27:48.422Z,101335.14
2018-05-11T18:32:50.143Z,101340.69
2018-05-11T18:37:51.902Z,101341.38
2018-05-11T18:42:54.119Z,101339.97
2018-05-11T18:47:55.758Z,101338.13
2018-05-11T18:52:57.419Z,101341.70
2018-05-11T18:57:59.527Z,101338.72
2018-05-11T19:03:01.643Z,101341.34
2018-05-11T19:08:03.772Z,101348.27
2018-05-11T19:13:05.177Z,101347.67
2018-05-11T19:18:06.527Z,101349.86
2018-05-11T19:23:07.922Z,101355.03
2018-05-11T19:28:10.545Z,101357.92
2018-05-11T19:33:11.969Z,101367.22
2018-05-11T19:38:13.372Z,101371.80
2018-05-11T19:43:14.741Z,101373.19
2018-05-11T19:48:16.105Z,101371.30
2018-05-11T19:53:19.239Z,101377.08
2018-05-11T19:58:21.463Z,101377.52
2018-05-11T20:03:22.902Z,101381.03
2018-05-11T20:08:24.275Z,101381.55
2018-05-11T20:13:25.642Z,101386.12
2018-05-11T20:18:27.537Z,101388.87
2018-05-11T20:23:28.916Z,101396.92
2018-05-11T20:28:31.030Z,101392.79
2018-05-11T20:33:32.568Z,101383.97
2018-05-11T20:38:34.907Z,101388.17
2018-05-11T20:43:36.301Z,101385.56
2018-05-11T20:48:37.674Z,101384.61
2018-05-11T20:53:39.006Z,101390.76
2018-05-11T20:58:41.741Z,101391.09
2018-05-11T21:03:43.130Z,101397.09
2018-05-11T21:08:44.552Z,101393.08
2018-05-11T21:13:45.933Z,101400.41
2018-05-11T21:18:47.331Z,101401.50
2018-05-11T21:23:48.697Z,101400.66
2018-05-11T21:28:50.149Z,101400.80
2018-05-11T21:33:51.592Z,101404.06
2018-05-11T21:38:52.984Z,101409.94
2018-05-11T21:43:54.346Z,101407.00
2018-05-11T21:48:56.479Z,101406.13
2018-05-11T21:53:57.835Z,101404.13
2018-05-11T21:58:59.200Z,101404.88
2018-05-11T22:04:01.555Z,101398.20
2018-05-11T22:09:03.023Z,101390.59
2018-05-11T22:14:05.869Z,101392.08
2018-05-11T22:19:07.231Z,101386.34
2018-05-11T22:24:09.947Z,101396.41
2018-05-11T22:29:11.393Z,101387.41
2018-05-11T22:34:12.758Z,101393.22
2018-05-11T22:39:14.128Z,101383.36
2018-05-11T22:44:15.487Z,101382.38
2018-05-11T22:49:16.933Z,101375.48
2018-05-11T22:54:19.047Z,101371.91
2018-05-11T22:59:20.362Z,101368.48
2018-05-11T23:04:21.726Z,101366.02
2018-05-11T23:09:23.137Z,101358.21
2018-05-11T23:14:24.498Z,101356.78
2018-05-11T23:19:26.565Z,101360.14
2018-05-11T23:24:28.141Z,101356.77
2018-05-11T23:29:31.556Z,101353.52
2018-05-11T23:34:32.903Z,101345.53
2018-05-11T23:39:34.225Z,101353.09
2018-05-11T23:44:36.296Z,101337.63
2018-05-11T23:49:37.666Z,101332.59
2018-05-11T23:54:38.974Z,101327.16
2018-05-11T23:59:40.306Z,101318.11
